MAPA DE AEROPUERTO

INFORMACIÓN METAR y TAF

METAR FOR LESO
ADDS - METARS form results

(1417 UTC 23 January 2020)
Data provider http://aviationweather.gov/metar/data/
 
METAR text: LESO 231400Z 00000KT CAVOK 11/08 Q1018
Conditions at: LESO (SAN SEBASTIAN/FU, ES) observed 1400 UTC 23 January 2020
Temperature: 11.0°C (52°F)
Dewpoint: 8.0°C (46°F) [RH = 82%]
Pressure (altimeter): 30.06 inches Hg (1018.0 mb)
Winds: calm
Visibility: 6 or more miles (10+ km)
Ceiling: ceiling and visibility are OK
Clouds: unknown
Weather: no significant weather observed at this time

METAR text: LESO 231330Z 27001KT 9999 FEW010 11/08 Q1018
Conditions at: LESO (SAN SEBASTIAN/FU, ES) observed 1330 UTC 23 January 2020
Temperature: 11.0°C (52°F)
Dewpoint: 8.0°C (46°F) [RH = 82%]
Pressure (altimeter): 30.06 inches Hg (1018.0 mb)
Winds: from the W (270 degrees) at 1 MPH (1 knots; 0.5 m/s)
Visibility: 6 or more miles (10+ km)
Ceiling: at least 12,000 feet AGL
Clouds: few clouds at 1000 feet AGL
Weather: no significant weather observed at this time

Forecast for: LESO (SAN SEBASTIAN/FU, ES)
Text: TAF LESO 231100Z 2312/2412 VRB04KT 9999 SCT020 SCT040 TX12/2314Z TN04/2406Z
Forecast period: 1200 to 1800 UTC 23 January 2020
Forecast type: FROM: standard forecast or significant change
Winds: variable direction winds at 5 MPH (4 knots; 2.1 m/s)
Visibility: 6 or more miles 10+ km)
Ceiling: at least 12,000 feet AGL
Clouds: scattered clouds at 2000 feet AGL
scattered clouds at 4000 feet AGL
Weather: no significant weather forecast for this period
Text: PROB30
Forecast period: 1200 to 1800 UTC 23 January 2020
Forecast type: TEMPORARY: The following changes expected for less than half the time period
Visibility: 1.86 miles (2.99 km)
Ceiling: 1000 feet AGL
Clouds: broken clouds at 1000 feet AGL
Weather: RA  (moderate rain)
Text: TEMPO 2312/2318 3000 RA BKN010
Forecast period: 1800 UTC 23 January 2020 to 1200 UTC 24 January 2020
Forecast type: BECOMING: Conditions expected to become as follows by 2000 UTC 23 January 2020
Winds: from the S (180 degrees) at 14 MPH (12 knots; 6.2 m/s)
Visibility: 6 or more miles 10+ km)
Ceiling: at least 12,000 feet AGL
Clouds: scattered clouds at 2000 feet AGL
scattered clouds at 4000 feet AGL
Weather: no significant weather forecast for this period
Text: BECMG 2318/2320 18012KT
Forecast period: 2000 UTC 23 January 2020 to 0600 UTC 24 January 2020
Forecast type: TEMPORARY: The following changes expected for less than half the time period
Winds: from the S (180 degrees) at 17 MPH (15 knots; 7.7 m/s)
gusting to 29 MPH (25 knots; 12.9 m/s)
Visibility: missing
Ceiling: unknown
Clouds: missing
Weather: no significant weather forecast for this period